createdAt,value
2022-09-12T00:01:15.269Z,69.79
2022-09-12T00:03:43.913Z,69.74
2022-09-12T00:06:14.220Z,69.83
2022-09-12T00:08:44.128Z,69.86
2022-09-12T00:11:19.278Z,69.86
2022-09-12T00:13:52.087Z,70.24
2022-09-12T00:16:22.816Z,70.10
2022-09-12T00:18:51.470Z,70.11
2022-09-12T00:21:20.751Z,70.59
2022-09-12T00:23:49.023Z,70.51
2022-09-12T00:26:17.778Z,70.57
2022-09-12T00:28:46.786Z,69.97
2022-09-12T00:31:18.789Z,70.38
2022-09-12T00:33:47.499Z,70.86
2022-09-12T00:36:17.764Z,70.75
2022-09-12T00:38:49.218Z,70.71
2022-09-12T00:41:20.258Z,70.90
2022-09-12T00:43:49.978Z,71.17
2022-09-12T00:46:27.915Z,71.60
2022-09-12T00:48:59.729Z,71.85
2022-09-12T00:51:28.931Z,72.29
2022-09-12T00:53:57.337Z,72.85
2022-09-12T00:56:25.914Z,72.87
2022-09-12T00:58:57.533Z,73.35
2022-09-12T01:01:31.719Z,73.68
2022-09-12T01:04:00.758Z,73.53
2022-09-12T01:06:30.610Z,73.61
2022-09-12T01:09:03.496Z,74.16
2022-09-12T01:11:32.561Z,74.46
2022-09-12T01:14:00.999Z,75.04
2022-09-12T01:16:30.812Z,75.15
2022-09-12T01:19:07.463Z,77.01
2022-09-12T01:21:38.664Z,76.61
2022-09-12T01:24:44.918Z,76.43
2022-09-12T01:27:24.185Z,78.36
2022-09-12T01:30:22.132Z,77.82
2022-09-12T01:33:01.991Z,78.98
2022-09-12T01:35:34.398Z,79.35
2022-09-12T01:38:13.273Z,82.01
2022-09-12T01:40:46.451Z,82.67
2022-09-12T01:43:21.362Z,83.45
2022-09-12T01:45:55.583Z,83.63
2022-09-12T01:48:26.513Z,84.48
2022-09-12T01:51:00.517Z,84.46
2022-09-12T01:53:31.379Z,85.01
2022-09-12T01:56:09.849Z,85.34
2022-09-12T01:58:42.088Z,83.67
2022-09-12T02:01:12.825Z,83.81
2022-09-12T02:03:45.936Z,83.93
2022-09-12T02:06:18.574Z,84.22
2022-09-12T02:08:49.834Z,84.69
2022-09-12T02:11:18.049Z,85.24
2022-09-12T02:13:49.712Z,85.17
2022-09-12T02:16:20.333Z,85.80
2022-09-12T02:18:54.583Z,85.66
2022-09-12T02:21:24.248Z,85.38
2022-09-12T02:23:56.674Z,85.87
2022-09-12T02:26:29.356Z,85.33
2022-09-12T02:28:58.807Z,85.33
2022-09-12T02:31:30.247Z,85.33
2022-09-12T02:34:10.769Z,84.92
2022-09-12T02:36:50.117Z,85.27
2022-09-12T02:39:21.538Z,85.36
2022-09-12T02:41:51.779Z,86.00
2022-09-12T02:44:20.106Z,85.58
2022-09-12T02:46:50.366Z,85.83
2022-09-12T02:49:20.042Z,86.14
2022-09-12T02:51:49.230Z,86.08
2022-09-12T02:54:19.163Z,86.74
2022-09-12T02:56:47.547Z,87.62
2022-09-12T02:59:18.062Z,86.97
2022-09-12T03:02:05.643Z,87.63
2022-09-12T03:04:48.321Z,87.69
2022-09-12T03:07:22.002Z,88.26
2022-09-12T03:09:55.635Z,87.47
2022-09-12T03:12:34.003Z,87.36
2022-09-12T03:15:14.325Z,87.50
2022-09-12T03:17:50.871Z,88.63
2022-09-12T03:20:24.418Z,87.58
2022-09-12T03:22:55.964Z,87.31
2022-09-12T03:25:28.481Z,87.61
2022-09-12T03:28:00.210Z,88.92
2022-09-12T03:30:28.915Z,88.97
2022-09-12T03:32:57.100Z,88.39
2022-09-12T03:35:27.138Z,89.11
2022-09-12T03:37:55.233Z,89.47
2022-09-12T03:40:23.557Z,89.59
2022-09-12T03:42:51.869Z,89.73
2022-09-12T03:45:19.940Z,90.36
2022-09-12T03:47:50.117Z,90.60
2022-09-12T03:50:18.717Z,90.88
2022-09-12T03:52:48.278Z,90.84
2022-09-12T03:55:16.551Z,90.58
2022-09-12T03:57:44.891Z,89.61
2022-09-12T04:00:19.074Z,90.14
2022-09-12T04:02:48.522Z,90.66
2022-09-12T04:05:16.767Z,90.94
2022-09-12T04:07:44.894Z,91.10
2022-09-12T04:10:16.209Z,91.03
2022-09-12T04:12:44.769Z,91.60
2022-09-12T04:15:13.536Z,91.86
2022-09-12T04:17:41.832Z,90.99
2022-09-12T04:20:10.694Z,91.05
2022-09-12T04:22:38.862Z,92.27
2022-09-12T04:25:08.487Z,92.28
2022-09-12T04:27:38.063Z,91.50
2022-09-12T04:30:07.266Z,91.83
2022-09-12T04:32:35.618Z,91.32
2022-09-12T04:35:03.830Z,91.44
2022-09-12T04:37:32.011Z,92.19
2022-09-12T04:40:00.495Z,91.44
2022-09-12T04:42:28.727Z,93.06
2022-09-12T04:44:58.295Z,92.07
2022-09-12T04:47:26.626Z,92.67
2022-09-12T04:49:54.752Z,92.12
2022-09-12T04:52:23.009Z,91.59
2022-09-12T04:54:51.305Z,92.34
2022-09-12T04:57:19.448Z,93.11
2022-09-12T04:59:47.563Z,92.47
2022-09-12T05:02:17.262Z,92.19
2022-09-12T05:04:47.008Z,93.18
2022-09-12T05:07:15.207Z,92.53
2022-09-12T05:09:45.071Z,93.55
2022-09-12T05:12:14.347Z,92.97
2022-09-12T05:14:44.390Z,92.42
2022-09-12T05:17:12.642Z,91.52
2022-09-12T05:19:43.432Z,92.82
2022-09-12T05:22:11.588Z,93.58
2022-09-12T05:24:47.259Z,93.20
2022-09-12T05:27:18.046Z,92.56
2022-09-12T05:29:46.417Z,92.22
2022-09-12T05:32:14.593Z,93.33
2022-09-12T05:34:44.129Z,92.51
2022-09-12T05:37:13.275Z,92.51
2022-09-12T05:39:41.540Z,92.52
2022-09-12T05:42:10.018Z,93.05
2022-09-12T05:44:38.271Z,91.87
2022-09-12T05:47:06.723Z,92.22
2022-09-12T05:49:36.560Z,92.23
2022-09-12T05:52:06.547Z,92.36
2022-09-12T05:54:34.746Z,91.96
2022-09-12T05:57:02.977Z,92.64
2022-09-12T05:59:31.243Z,92.25
2022-09-12T06:01:59.470Z,92.57
2022-09-12T06:04:28.190Z,92.59
2022-09-12T06:06:56.780Z,92.75
2022-09-12T06:09:26.281Z,92.21
2022-09-12T06:11:57.176Z,93.04
2022-09-12T06:14:27.109Z,92.78
2022-09-12T06:16:55.269Z,92.97
2022-09-12T06:19:25.347Z,93.36
2022-09-12T06:21:53.522Z,92.99
2022-09-12T06:24:22.376Z,92.90
2022-09-12T06:26:54.805Z,93.13
2022-09-12T06:29:23.168Z,92.94
2022-09-12T06:31:51.335Z,93.42
2022-09-12T06:34:20.214Z,92.95
2022-09-12T06:36:50.913Z,93.35
2022-09-12T06:39:20.766Z,92.86
2022-09-12T06:41:49.563Z,92.58
2022-09-12T06:44:20.356Z,92.76
2022-09-12T06:46:48.969Z,92.89
2022-09-12T06:49:19.268Z,92.42
2022-09-12T06:51:47.485Z,93.28
2022-09-12T06:54:17.064Z,91.42
2022-09-12T06:56:45.874Z,92.17
2022-09-12T06:59:14.125Z,92.16
2022-09-12T07:01:43.856Z,92.18
2022-09-12T07:04:12.062Z,91.45
2022-09-12T07:06:41.528Z,91.52
2022-09-12T07:09:11.755Z,91.32
2022-09-12T07:11:41.294Z,90.72
2022-09-12T07:14:11.527Z,91.32
2022-09-12T07:16:39.702Z,90.67
2022-09-12T07:19:09.967Z,90.57
2022-09-12T07:21:40.536Z,90.27
2022-09-12T07:24:10.502Z,89.74
2022-09-12T07:26:40.117Z,89.60
2022-09-12T07:29:34.768Z,89.13
2022-09-12T07:31:57.759Z,88.96
2022-09-12T07:34:27.393Z,88.34
2022-09-12T07:36:55.733Z,88.15
2022-09-12T07:39:24.039Z,88.09
2022-09-12T07:41:52.219Z,87.46
2022-09-12T07:44:24.905Z,86.80
2022-09-12T07:46:54.632Z,86.28
2022-09-12T07:49:24.185Z,86.28
2022-09-12T07:51:54.086Z,86.17
2022-09-12T07:54:22.418Z,86.14
2022-09-12T07:56:50.591Z,86.54
2022-09-12T07:59:41.389Z,85.85
2022-09-12T08:02:07.523Z,86.02
2022-09-12T08:04:37.603Z,86.11
2022-09-12T08:07:07.489Z,85.16
2022-09-12T08:09:35.697Z,84.60
2022-09-12T08:12:04.243Z,84.70
2022-09-12T08:14:34.388Z,83.99
2022-09-12T08:17:02.495Z,83.89
2022-09-12T08:19:32.250Z,83.21
2022-09-12T08:22:00.434Z,82.99
2022-09-12T08:24:29.983Z,81.99
2022-09-12T08:26:58.285Z,82.43
2022-09-12T08:29:26.471Z,82.39
2022-09-12T08:31:57.279Z,81.91
2022-09-12T08:34:26.447Z,81.45
2022-09-12T08:36:55.290Z,81.42
2022-09-12T08:39:24.708Z,81.09
2022-09-12T08:41:59.923Z,80.21
2022-09-12T08:44:51.158Z,80.71
2022-09-12T08:47:23.370Z,81.61
2022-09-12T08:50:02.310Z,80.55
2022-09-12T08:52:37.536Z,80.85
2022-09-12T08:55:07.599Z,80.38
2022-09-12T08:57:37.105Z,80.54
2022-09-12T09:00:08.210Z,80.25
2022-09-12T09:03:07.534Z,81.10
2022-09-12T09:05:47.402Z,79.92
2022-09-12T09:08:23.274Z,79.78
2022-09-12T09:10:55.426Z,79.74
2022-09-12T09:13:52.345Z,79.67
2022-09-12T09:16:27.505Z,78.60
2022-09-12T09:19:01.481Z,77.70
2022-09-12T09:21:34.086Z,77.66
2022-09-12T09:24:05.057Z,77.53
2022-09-12T09:26:42.340Z,77.33
2022-09-12T09:29:18.861Z,76.43
2022-09-12T09:31:50.397Z,76.10
2022-09-12T09:34:21.955Z,76.66
2022-09-12T09:36:54.536Z,75.59
2022-09-12T09:39:31.786Z,75.94
2022-09-12T09:42:13.092Z,75.78
2022-09-12T09:44:43.933Z,75.21
2022-09-12T09:47:12.496Z,74.80
2022-09-12T09:49:43.382Z,74.50
2022-09-12T09:52:14.617Z,74.50
2022-09-12T09:54:46.135Z,74.28
2022-09-12T09:57:46.715Z,73.93
2022-09-12T10:00:31.899Z,73.99
2022-09-12T10:03:23.843Z,74.51
2022-09-12T10:05:53.994Z,73.11
2022-09-12T10:08:24.161Z,72.54
2022-09-12T10:10:57.191Z,72.54
2022-09-12T10:13:29.551Z,72.53
2022-09-12T10:16:01.646Z,73.01
2022-09-12T10:18:41.881Z,72.76
2022-09-12T10:21:28.246Z,71.51
2022-09-12T10:24:03.324Z,71.85
2022-09-12T10:26:37.464Z,71.13
2022-09-12T10:29:12.669Z,71.00
2022-09-12T10:31:48.957Z,70.90
2022-09-12T10:34:27.960Z,70.08
2022-09-12T10:37:01.506Z,71.33
2022-09-12T10:39:31.143Z,69.90
2022-09-12T10:41:59.363Z,70.21
2022-09-12T10:44:29.861Z,69.89
2022-09-12T10:47:00.167Z,69.70
2022-09-12T10:49:31.569Z,70.23
2022-09-12T10:52:18.469Z,69.62
2022-09-12T10:54:46.856Z,70.13
2022-09-12T10:57:34.044Z,70.07
2022-09-12T11:00:17.305Z,69.34
2022-09-12T11:02:52.392Z,69.64
2022-09-12T11:05:42.041Z,69.22
2022-09-12T11:08:22.010Z,69.54
2022-09-12T11:10:57.245Z,68.82
2022-09-12T11:13:50.422Z,69.11
2022-09-12T11:16:25.915Z,69.43
2022-09-12T11:19:05.656Z,68.95
2022-09-12T11:21:46.386Z,69.27
2022-09-12T11:24:34.935Z,69.57
2022-09-12T11:27:12.250Z,68.15
2022-09-12T11:29:49.875Z,69.12
2022-09-12T11:32:34.463Z,68.53
2022-09-12T11:35:08.320Z,68.46
2022-09-12T11:37:47.312Z,67.22
2022-09-12T11:40:27.912Z,67.41
2022-09-12T11:43:01.091Z,66.95
2022-09-12T11:45:31.427Z,66.84
2022-09-12T11:48:05.495Z,67.17
2022-09-12T11:50:34.963Z,66.73
2022-09-12T11:53:11.235Z,67.15
2022-09-12T11:55:48.149Z,67.36
2022-09-12T11:58:16.762Z,67.50
2022-09-12T12:00:48.381Z,67.30
2022-09-12T12:03:25.323Z,66.48
2022-09-12T12:05:57.222Z,67.18
2022-09-12T12:08:27.759Z,66.55
2022-09-12T12:10:57.573Z,67.11
2022-09-12T12:13:29.994Z,66.57
2022-09-12T12:16:00.951Z,66.63
2022-09-12T12:18:30.230Z,66.48
2022-09-12T12:21:21.247Z,66.11
2022-09-12T12:24:05.069Z,66.03
2022-09-12T12:27:00.286Z,66.29
2022-09-12T12:29:43.678Z,66.17
2022-09-12T12:32:30.637Z,65.29
2022-09-12T12:35:50.480Z,65.37
2022-09-12T12:38:30.717Z,65.94
2022-09-12T12:41:34.510Z,64.44
2022-09-12T12:44:41.668Z,64.49
2022-09-12T12:47:17.383Z,64.58
2022-09-12T12:49:52.916Z,63.87
2022-09-12T12:52:21.502Z,64.35
2022-09-12T12:55:01.925Z,63.85
2022-09-12T12:57:37.110Z,64.11
2022-09-12T13:00:09.009Z,63.29
2022-09-12T13:02:40.100Z,63.14
2022-09-12T13:05:19.309Z,62.79
2022-09-12T13:07:48.374Z,63.41
2022-09-12T13:10:24.446Z,63.32
2022-09-12T13:12:53.900Z,63.14
2022-09-12T13:15:52.126Z,63.95
2022-09-12T13:18:26.478Z,63.67
2022-09-12T13:20:59.530Z,63.11
2022-09-12T13:23:29.984Z,64.03
2022-09-12T13:26:00.661Z,63.40
2022-09-12T13:28:29.960Z,63.37
2022-09-12T13:31:01.467Z,63.25
2022-09-12T13:33:36.259Z,63.54
2022-09-12T13:36:43.807Z,64.16
2022-09-12T13:39:18.916Z,63.70
2022-09-12T13:42:20.524Z,63.91
2022-09-12T13:44:52.426Z,63.62
2022-09-12T13:47:27.424Z,64.05
2022-09-12T13:49:56.158Z,63.27
2022-09-12T13:52:27.543Z,62.93
2022-09-12T13:54:57.125Z,62.36
2022-09-12T13:57:33.848Z,62.93
2022-09-12T14:00:07.605Z,62.37
2022-09-12T14:02:38.035Z,62.07
2022-09-12T14:05:14.037Z,62.04
2022-09-12T14:07:56.419Z,60.99
2022-09-12T14:10:32.076Z,60.66
2022-09-12T14:13:03.024Z,61.25
2022-09-12T14:15:35.659Z,61.69
2022-09-12T14:18:05.546Z,61.89
2022-09-12T14:20:38.046Z,60.93
2022-09-12T14:23:12.513Z,60.95
2022-09-12T14:25:42.135Z,60.81
2022-09-12T14:28:13.445Z,60.81
2022-09-12T14:30:43.195Z,60.78
2022-09-12T14:33:20.910Z,60.85
2022-09-12T14:35:50.423Z,60.63
2022-09-12T14:38:26.099Z,61.29
2022-09-12T14:41:01.051Z,61.28
2022-09-12T14:43:30.640Z,59.93
2022-09-12T14:46:02.802Z,60.26
2022-09-12T14:48:33.122Z,60.94
2022-09-12T14:51:01.475Z,60.32
2022-09-12T14:53:34.596Z,60.54
2022-09-12T14:56:10.485Z,60.54
2022-09-12T14:58:39.130Z,61.07
2022-09-12T15:01:32.642Z,60.86
2022-09-12T15:04:01.034Z,61.08
2022-09-12T15:06:30.753Z,61.35
2022-09-12T15:08:59.867Z,61.54
2022-09-12T15:11:28.157Z,61.70
2022-09-12T15:13:56.292Z,61.75
2022-09-12T15:16:24.459Z,61.95
2022-09-12T15:18:54.528Z,62.74
2022-09-12T15:21:23.073Z,62.46
2022-09-12T15:23:52.410Z,62.33
2022-09-12T15:26:23.134Z,62.15
2022-09-12T15:28:52.275Z,61.99
2022-09-12T15:31:25.436Z,62.13
2022-09-12T15:33:56.035Z,62.18
2022-09-12T15:36:25.845Z,62.99
2022-09-12T15:38:56.068Z,62.58
2022-09-12T15:41:26.976Z,62.86
2022-09-12T15:43:55.494Z,63.54
2022-09-12T15:46:24.036Z,63.44
2022-09-12T15:48:55.918Z,63.61
2022-09-12T15:51:24.241Z,63.86
2022-09-12T15:53:53.139Z,64.05
2022-09-12T15:56:27.476Z,64.07
2022-09-12T15:58:59.349Z,63.92
2022-09-12T16:01:28.883Z,63.91
2022-09-12T16:03:59.072Z,64.23
2022-09-12T16:06:27.997Z,63.92
2022-09-12T16:08:56.552Z,63.72
2022-09-12T16:11:26.488Z,63.62
2022-09-12T16:13:55.604Z,63.52
2022-09-12T16:16:24.085Z,64.25
2022-09-12T16:18:52.317Z,64.04
2022-09-12T16:21:23.058Z,64.07
2022-09-12T16:23:53.089Z,63.91
2022-09-12T16:26:21.350Z,63.96
2022-09-12T16:28:49.896Z,63.78
2022-09-12T16:31:18.217Z,63.45
2022-09-12T16:33:46.519Z,63.42
2022-09-12T16:36:16.659Z,63.88
2022-09-12T16:38:47.691Z,63.77
2022-09-12T16:41:16.919Z,64.42
2022-09-12T16:43:45.638Z,64.25
2022-09-12T16:46:16.154Z,64.13
2022-09-12T16:48:49.549Z,63.99
2022-09-12T16:51:21.916Z,64.09
2022-09-12T16:53:51.898Z,63.55
2022-09-12T16:56:20.404Z,63.76
2022-09-12T16:58:49.182Z,63.87
2022-09-12T17:01:19.405Z,63.71
2022-09-12T17:03:47.688Z,64.19
2022-09-12T17:06:17.298Z,63.75
2022-09-12T17:08:47.501Z,63.66
2022-09-12T17:11:18.754Z,63.88
2022-09-12T17:14:06.091Z,63.42
2022-09-12T17:16:36.196Z,63.87
2022-09-12T17:19:07.318Z,62.99
2022-09-12T17:21:36.674Z,63.06
2022-09-12T17:24:05.321Z,62.98
2022-09-12T17:26:34.872Z,62.97
2022-09-12T17:29:03.443Z,63.17
2022-09-12T17:31:32.110Z,63.32
2022-09-12T17:34:01.142Z,63.06
2022-09-12T17:36:32.130Z,63.30
2022-09-12T17:39:00.573Z,63.39
2022-09-12T17:41:32.353Z,63.53
2022-09-12T17:44:03.657Z,63.59
2022-09-12T17:46:35.247Z,63.46
2022-09-12T17:49:04.865Z,63.77
2022-09-12T17:51:35.377Z,63.35
2022-09-12T17:54:05.618Z,63.47
2022-09-12T17:56:35.751Z,63.69
2022-09-12T17:59:06.704Z,63.84
2022-09-12T18:01:52.431Z,63.85
2022-09-12T18:04:21.158Z,64.15
2022-09-12T18:06:49.770Z,63.81
2022-09-12T18:09:19.776Z,64.22
2022-09-12T18:11:49.164Z,64.24
2022-09-12T18:14:19.396Z,64.33
2022-09-12T18:16:49.229Z,64.42
2022-09-12T18:19:17.834Z,64.48
2022-09-12T18:21:46.976Z,64.52
2022-09-12T18:24:15.763Z,64.56
2022-09-12T18:26:45.029Z,64.56
2022-09-12T18:29:16.994Z,64.69
2022-09-12T18:31:47.980Z,65.13
2022-09-12T18:34:17.332Z,64.84
2022-09-12T18:36:46.971Z,65.14
2022-09-12T18:39:15.247Z,65.39
2022-09-12T18:41:43.788Z,65.38
2022-09-12T18:44:12.779Z,65.34
2022-09-12T18:46:43.042Z,65.50
2022-09-12T18:49:12.992Z,65.66
2022-09-12T18:51:42.004Z,65.87
2022-09-12T18:54:14.855Z,65.61
2022-09-12T18:56:45.976Z,65.76
2022-09-12T18:59:15.425Z,66.03
2022-09-12T19:01:44.476Z,66.00
2022-09-12T19:04:16.859Z,66.37
2022-09-12T19:06:46.307Z,66.38
2022-09-12T19:09:16.464Z,66.55
2022-09-12T19:11:49.670Z,66.70
2022-09-12T19:14:18.033Z,66.92
2022-09-12T19:16:47.313Z,67.12
2022-09-12T19:19:16.839Z,66.90
2022-09-12T19:21:45.289Z,66.80
2022-09-12T19:24:14.489Z,66.78
2022-09-12T19:26:42.771Z,67.03
2022-09-12T19:29:14.132Z,67.08
2022-09-12T19:31:42.499Z,67.13
2022-09-12T19:34:12.233Z,67.14
2022-09-12T19:36:46.694Z,67.14
2022-09-12T19:39:16.389Z,67.23
2022-09-12T19:41:44.897Z,67.43
2022-09-12T19:44:13.071Z,67.59
2022-09-12T19:46:41.929Z,67.22
2022-09-12T19:49:12.100Z,67.52
2022-09-12T19:51:41.936Z,67.70
2022-09-12T19:54:10.338Z,68.03
2022-09-12T19:56:38.638Z,68.31
2022-09-12T19:59:06.779Z,68.39
2022-09-12T20:01:37.233Z,68.03
2022-09-12T20:04:07.033Z,68.14
2022-09-12T20:06:35.319Z,68.21
2022-09-12T20:09:05.199Z,68.46
2022-09-12T20:11:33.614Z,68.37
2022-09-12T20:14:01.836Z,68.45
2022-09-12T20:16:30.335Z,68.75
2022-09-12T20:19:02.651Z,68.74
2022-09-12T20:21:35.890Z,68.76
2022-09-12T20:24:07.102Z,68.95
2022-09-12T20:26:35.746Z,68.98
2022-09-12T20:29:04.847Z,69.16
2022-09-12T20:31:33.769Z,69.27
2022-09-12T20:34:02.345Z,69.28
2022-09-12T20:36:30.557Z,69.22
2022-09-12T20:39:01.481Z,69.28
2022-09-12T20:41:33.014Z,69.49
2022-09-12T20:44:01.185Z,69.82
2022-09-12T20:46:30.027Z,69.62
2022-09-12T20:48:58.924Z,70.00
2022-09-12T20:51:29.831Z,69.61
2022-09-12T20:53:58.853Z,69.98
2022-09-12T20:56:28.069Z,70.51
2022-09-12T20:59:06.524Z,70.09
2022-09-12T21:01:35.016Z,70.24
2022-09-12T21:04:04.027Z,70.14
2022-09-12T21:06:32.712Z,70.52
2022-09-12T21:09:00.928Z,70.49
2022-09-12T21:11:29.709Z,70.76
2022-09-12T21:13:59.614Z,71.40
2022-09-12T21:16:28.022Z,71.11
2022-09-12T21:18:57.274Z,71.06
2022-09-12T21:21:26.080Z,71.24
2022-09-12T21:23:55.448Z,71.86
2022-09-12T21:26:23.575Z,72.13
2022-09-12T21:28:51.846Z,71.65
2022-09-12T21:31:21.477Z,72.04
2022-09-12T21:33:50.222Z,71.25
2022-09-12T21:36:19.111Z,71.54
2022-09-12T21:38:48.696Z,71.96
2022-09-12T21:41:18.441Z,71.96
2022-09-12T21:43:46.714Z,71.72
2022-09-12T21:46:14.862Z,71.66
2022-09-12T21:48:45.469Z,72.06
2022-09-12T21:51:13.726Z,72.27
2022-09-12T21:53:41.887Z,72.63
2022-09-12T21:56:10.847Z,72.51
2022-09-12T21:58:40.090Z,72.74
2022-09-12T22:01:10.503Z,72.83
2022-09-12T22:03:38.681Z,72.88
2022-09-12T22:06:08.614Z,72.97
2022-09-12T22:08:38.925Z,73.38
2022-09-12T22:11:09.811Z,73.70
2022-09-12T22:13:39.354Z,73.83
2022-09-12T22:16:08.003Z,73.90
2022-09-12T22:18:37.593Z,73.83
2022-09-12T22:21:09.166Z,74.15
2022-09-12T22:23:55.054Z,74.36
2022-09-12T22:26:23.282Z,74.24
2022-09-12T22:28:51.748Z,74.68
2022-09-12T22:31:20.453Z,74.88
2022-09-12T22:33:48.868Z,74.55
2022-09-12T22:36:18.469Z,74.67
2022-09-12T22:38:46.829Z,74.68
2022-09-12T22:41:15.090Z,75.04
2022-09-12T22:43:43.200Z,75.14
2022-09-12T22:46:13.519Z,74.99
2022-09-12T22:48:42.049Z,74.58
2022-09-12T22:51:10.381Z,74.74
2022-09-12T22:53:39.971Z,74.64
2022-09-12T22:56:08.624Z,75.12
2022-09-12T22:58:37.983Z,74.70
2022-09-12T23:01:07.345Z,74.59
2022-09-12T23:03:36.482Z,74.55
2022-09-12T23:06:05.666Z,74.35
2022-09-12T23:08:36.025Z,74.66
2022-09-12T23:11:09.422Z,74.02
2022-09-12T23:13:37.917Z,74.39
2022-09-12T23:16:08.045Z,74.10
2022-09-12T23:18:37.134Z,73.61
2022-09-12T23:21:07.141Z,73.79
2022-09-12T23:23:36.499Z,74.12
2022-09-12T23:26:12.278Z,74.06
2022-09-12T23:28:40.917Z,74.12
2022-09-12T23:31:10.195Z,73.84
2022-09-12T23:33:38.591Z,73.62
2022-09-12T23:36:11.484Z,73.46
2022-09-12T23:38:39.762Z,73.80
2022-09-12T23:41:09.893Z,73.49
2022-09-12T23:43:38.408Z,73.89
2022-09-12T23:46:08.326Z,73.73
2022-09-12T23:48:36.628Z,74.11
2022-09-12T23:51:07.392Z,74.31
2022-09-12T23:53:35.978Z,73.95
2022-09-12T23:56:04.633Z,74.20
2022-09-12T23:58:34.460Z,73.90
